Time;durP1;ratioP1;P1;durP2;ratioP2;P2;SDS_P1;SDS_P2;PMS_P1;PMS_P2;Temp;Humidity;BMP_temperature;BMP_pressure;BME280_temperature;BME280_humidity;BME280_pressure;Samples;Min_cycle;Max_cycle;Signal;HPM_P1;HPM_P2
2021/06/02 00:02:13;;;;;;;24.40;12.90;;;;;;;14.79;60.03;92795.22;5002799;28;20050;-90
2021/06/02 00:05:08;;;;;;;21.95;12.85;;;;;;;14.68;59.93;92792.09;4989267;28;20046;-92
2021/06/02 00:08:11;;;;;;;23.00;13.30;;;;;;;14.72;59.84;92798.31;5006241;28;20042;-92
2021/06/02 00:11:04;;;;;;;20.58;13.27;;;;;;;14.58;60.23;92777.31;5024454;28;20035;-91
2021/06/02 00:13:58;;;;;;;;;;;;;;;;;;;;;
2021/06/02 00:17:02;;;;;;;;;;;;;;;;;;;;;
2021/06/02 00:19:57;;;;;;;21.50;13.02;;;;;;;14.57;61.41;92781.06;4997016;28;20050;-91
2021/06/02 00:23:04;;;;;;;20.50;12.43;;;;;;;14.60;61.13;92790.19;4982857;28;20489;-91
2021/06/02 00:28:49;;;;;;;;;;;;;;;;;;;;;
2021/06/02 00:31:21;;;;;;;18.95;12.10;;;;;;;14.50;60.25;92798.31;5012072;28;20118;-91
2021/06/02 00:34:03;;;;;;;21.35;11.77;;;;;;;14.58;58.46;92808.16;4995232;28;20038;-91
2021/06/02 00:37:00;;;;;;;22.98;11.98;;;;;;;14.55;57.73;92795.59;4979505;28;20046;-91
2021/06/02 00:42:40;;;;;;;25.38;12.45;;;;;;;14.54;57.05;92802.72;4996259;28;20137;-92
2021/06/02 00:45:26;;;;;;;26.83;13.25;;;;;;;14.58;57.34;92795.00;4984577;28;20037;-90
2021/06/02 00:48:18;;;;;;;22.25;12.40;;;;;;;14.55;56.80;92793.75;5008540;28;20106;-91
2021/06/02 00:51:04;;;;;;;21.52;12.05;;;;;;;14.56;56.85;92792.66;5009119;28;20053;-91
2021/06/02 00:54:13;;;;;;;25.30;12.32;;;;;;;14.67;56.55;92811.63;4988939;28;20066;-91
2021/06/02 00:57:25;;;;;;;27.55;13.10;;;;;;;14.61;56.65;92798.88;4996059;28;20399;-90
2021/06/02 00:59:56;;;;;;;22.30;12.82;;;;;;;14.63;56.95;92810.66;4995522;28;20042;-90
2021/06/02 01:02:40;;;;;;;19.85;12.35;;;;;;;14.61;56.90;92804.16;5007861;28;20050;-92
2021/06/02 01:05:16;;;;;;;20.38;12.05;;;;;;;14.52;57.30;92794.34;4994750;28;20089;-90
2021/06/02 01:08:33;;;;;;;;;;;;;;;;;;;;;
2021/06/02 01:11:04;;;;;;;23.35;12.27;;;;;;;14.54;56.97;92796.63;4995066;28;20034;-90
2021/06/02 01:14:01;;;;;;;22.70;12.50;;;;;;;14.60;57.05;92811.28;4994396;28;20488;-91
2021/06/02 01:16:49;;;;;;;21.33;12.25;;;;;;;14.49;57.02;92797.56;4995579;28;20395;-91
2021/06/02 01:19:40;;;;;;;21.83;11.50;;;;;;;14.54;57.23;92801.91;4980814;28;20053;-90
2021/06/02 01:22:39;;;;;;;13.27;9.35;;;;;;;14.50;57.25;92806.22;4993417;28;20470;-91
2021/06/02 01:25:14;;;;;;;17.17;9.57;;;;;;;14.55;57.28;92804.28;4979223;28;20377;-92
2021/06/02 01:28:19;;;;;;;14.40;9.43;;;;;;;14.47;57.42;92791.81;5026598;28;20034;-92
2021/06/02 01:30:58;;;;;;;13.90;8.95;;;;;;;14.52;57.38;92801.44;4994209;28;20392;-92
2021/06/02 01:33:48;;;;;;;;;;;;;;;14.56;57.63;92819.00;4994603;28;20042;-91
2021/06/02 01:36:42;;;;;;;;;;;;;;;;;;;;;
2021/06/02 01:40:02;;;;;;;;;;;;;;;;;;;;;
2021/06/02 01:43:03;;;;;;;13.93;7.88;;;;;;;14.48;58.03;92824.22;4990245;28;20484;-91
2021/06/02 01:45:40;;;;;;;14.15;7.78;;;;;;;14.47;58.32;92827.91;4990322;28;20030;-91
2021/06/02 01:48:27;;;;;;;13.52;7.80;;;;;;;14.38;58.04;92817.31;5007209;28;20039;-91
2021/06/02 01:51:26;;;;;;;14.40;7.28;;;;;;;14.43;58.19;92833.00;5009506;28;20377;-90
2021/06/02 01:54:38;;;;;;;10.32;7.10;;;;;;;14.46;58.21;92823.72;5026096;28;20125;-91
2021/06/02 01:57:30;;;;;;;10.75;6.82;;;;;;;14.43;58.03;92821.69;4974108;28;20125;-91
2021/06/02 02:00:25;;;;;;;11.93;6.97;;;;;;;14.46;58.05;92832.41;5008425;28;20113;-90
2021/06/02 02:03:08;;;;;;;12.05;7.38;;;;;;;14.42;58.16;92830.69;5026280;28;20053;-90
2021/06/02 02:06:10;;;;;;;15.13;7.45;;;;;;;14.44;58.44;92825.88;5027924;28;20042;-91
2021/06/02 02:09:01;;;;;;;14.13;8.73;;;;;;;14.31;58.87;92820.38;5007298;28;20538;-92
2021/06/02 02:11:42;;;;;;;15.98;8.68;;;;;;;14.38;58.80;92826.00;5009300;28;20039;-91
2021/06/02 02:14:42;;;;;;;13.88;8.43;;;;;;;14.43;58.49;92826.94;5024783;28;20040;-92
2021/06/02 02:17:38;;;;;;;13.15;8.18;;;;;;;14.25;58.88;92816.34;5006334;28;20038;-91
2021/06/02 02:20:39;;;;;;;;;;;;;;;;;;;;;
2021/06/02 02:23:41;;;;;;;13.75;7.55;;;;;;;14.24;58.94;92814.75;4986937;28;20039;-91
2021/06/02 02:26:41;;;;;;;10.82;7.00;;;;;;;14.20;58.64;92819.06;4992631;28;20038;-91
2021/06/02 02:29:51;;;;;;;13.30;7.63;;;;;;;14.30;59.05;92832.00;5009998;28;20041;-90
2021/06/02 02:32:56;;;;;;;12.77;6.65;;;;;;;14.19;59.21;92828.06;4985120;28;20296;-90
2021/06/02 02:35:54;;;;;;;11.13;6.88;;;;;;;14.19;58.93;92828.06;4995985;28;20049;-90
2021/06/02 02:39:20;;;;;;;10.43;7.15;;;;;;;14.23;58.82;92844.81;4994231;28;20392;-91
2021/06/02 02:42:13;;;;;;;11.93;6.18;;;;;;;14.16;58.98;92841.78;4953932;28;20039;-92
2021/06/02 02:44:56;;;;;;;13.07;6.95;;;;;;;14.15;59.67;92851.56;4937075;29;20043;-91
2021/06/02 02:47:50;;;;;;;;;;;;;;;14.19;59.43;92846.47;4979731;28;20046;-91
2021/06/02 02:50:29;;;;;;;11.57;7.20;;;;;;;14.12;59.89;92843.50;4992611;28;19943;-91
2021/06/02 02:53:08;;;;;;;14.32;6.75;;;;;;;14.11;59.42;92849.81;5014697;28;20037;-91
2021/06/02 02:55:45;;;;;;;11.27;6.93;;;;;;;14.11;59.25;92852.44;4994980;28;20035;-91
2021/06/02 02:58:14;;;;;;;12.57;6.75;;;;;;;14.12;58.51;92862.69;4956647;28;20093;-91
2021/06/02 03:01:08;;;;;;;;;;;;;;;;;;;;;
2021/06/02 03:04:01;;;;;;;11.68;6.57;;;;;;;13.94;57.77;92842.59;4974052;28;20039;-91
2021/06/02 03:06:53;;;;;;;;;;;;;;;;;;;;;
2021/06/02 03:10:05;;;;;;;8.25;5.45;;;;;;;14.00;56.87;92851.13;4983647;28;20120;-91
2021/06/02 03:13:03;;;;;;;9.07;5.57;;;;;;;14.04;56.39;92862.63;5024786;28;20041;-90
2021/06/02 03:16:01;;;;;;;;;;;;;;;;;;;;;
2021/06/02 03:22:43;;;;;;;15.68;6.40;;;;;;;13.90;57.25;92858.19;4992390;28;20057;-90
2021/06/02 03:25:33;;;;;;;11.00;7.35;;;;;;;13.98;58.25;92876.97;5013477;28;20042;-90
2021/06/02 03:28:46;;;;;;;11.40;6.30;;;;;;;13.93;58.06;92873.38;4974151;28;20065;-92
2021/06/02 03:31:23;;;;;;;11.65;6.95;;;;;;;13.83;58.42;92873.59;4956498;28;20074;-92
2021/06/02 03:34:35;;;;;;;14.02;6.78;;;;;;;13.78;58.27;92857.94;4988977;28;20042;-91
2021/06/02 03:37:19;;;;;;;10.38;7.43;;;;;;;13.84;59.05;92872.50;4983159;28;20057;-91
2021/06/02 03:40:11;;;;;;;12.88;6.60;;;;;;;13.78;59.10;92871.09;5008425;28;20034;-91
2021/06/02 03:43:10;;;;;;;11.23;7.00;;;;;;;13.79;58.89;92877.91;4994708;28;20050;-91
2021/06/02 03:46:20;;;;;;;12.27;6.95;;;;;;;13.77;59.64;92880.03;5007573;28;20057;-91
2021/06/02 03:49:49;;;;;;;15.05;6.88;;;;;;;13.66;59.29;92868.19;4996188;28;20035;-91
2021/06/02 03:53:09;;;;;;;11.80;6.57;;;;;;;13.71;59.25;92886.47;4965325;28;20038;-91
2021/06/02 03:56:00;;;;;;;15.63;6.60;;;;;;;13.59;59.18;92871.19;5002548;28;20081;-92
2021/06/02 03:59:00;;;;;;;9.18;6.20;;;;;;;13.63;59.47;92879.28;5008068;28;20396;-91
2021/06/02 04:02:08;;;;;;;14.13;6.97;;;;;;;13.68;58.82;92889.69;5008951;28;20396;-90
2021/06/02 04:05:24;;;;;;;;;;;;;;;;;;;;;
2021/06/02 04:08:48;;;;;;;;;;;;;;;;;;;;;
2021/06/02 04:11:54;;;;;;;10.57;6.23;;;;;;;13.49;59.66;92869.56;4995218;28;20038;-90
2021/06/02 04:14:34;;;;;;;9.85;5.82;;;;;;;13.50;60.00;92880.88;4996203;28;20038;-91
2021/06/02 04:17:11;;;;;;;9.95;6.28;;;;;;;13.46;60.46;92879.88;4995620;28;20125;-91
2021/06/02 04:20:05;;;;;;;12.73;5.93;;;;;;;13.52;61.11;92881.34;4983865;28;20064;-91
2021/06/02 04:25:44;;;;;;;8.43;5.65;;;;;;;13.45;61.66;92875.72;4994957;28;20084;-91
2021/06/02 04:28:21;;;;;;;11.52;5.68;;;;;;;13.47;61.78;92869.09;5027673;28;20500;-91
2021/06/02 04:34:11;;;;;;;;;;;;;;;;;;;;;
2021/06/02 04:36:48;;;;;;;13.05;6.03;;;;;;;13.40;60.63;92871.34;4995519;28;20042;-90
2021/06/02 04:42:20;;;;;;;9.95;6.00;;;;;;;13.42;60.42;92871.81;5005937;28;20104;-91
2021/06/02 04:45:27;;;;;;;11.05;6.22;;;;;;;13.52;60.13;92883.97;5025321;28;20502;-90
2021/06/02 04:48:23;;;;;;;9.05;5.78;;;;;;;13.52;61.68;92884.75;5000143;28;20133;-91
2021/06/02 04:55:19;;;;;;;10.73;5.88;;;;;;;13.58;61.91;92892.53;4985082;28;20057;-91
2021/06/02 04:58:27;;;;;;;13.95;5.82;;;;;;;13.60;61.84;92893.03;4995080;28;20105;-93
2021/06/02 05:01:30;;;;;;;;;;;;;;;;;;;;;
2021/06/02 05:04:20;;;;;;;14.32;5.72;;;;;;;13.59;63.20;92894.09;4998144;28;20050;-92
2021/06/02 05:07:08;;;;;;;9.65;5.72;;;;;;;13.57;63.01;92901.50;4993949;28;20038;-92
2021/06/02 05:09:55;;;;;;;11.10;6.00;;;;;;;13.54;63.50;92903.66;5007541;28;20089;-92
2021/06/02 05:12:57;;;;;;;10.13;5.90;;;;;;;13.57;63.59;92902.28;5011224;28;20035;-92
2021/06/02 05:15:50;;;;;;;9.82;6.50;;;;;;;13.57;63.05;92912.03;5012159;28;20030;-92
2021/06/02 05:18:50;;;;;;;10.65;6.72;;;;;;;13.58;62.29;92909.13;4995685;28;20038;-92
2021/06/02 05:24:44;;;;;;;11.32;7.57;;;;;;;13.56;63.67;92910.47;4999398;28;20046;-92
2021/06/02 05:27:50;;;;;;;;;;;;;;;;;;;;;
2021/06/02 05:31:03;;;;;;;13.93;7.53;;;;;;;13.47;64.34;92899.88;5011516;28;20042;-92
2021/06/02 05:34:19;;;;;;;12.75;6.60;;;;;;;13.58;63.80;92919.63;4976841;28;20049;-92
2021/06/02 05:37:28;;;;;;;11.25;7.15;;;;;;;13.61;63.78;92919.03;5024806;28;20045;-92
2021/06/02 05:40:26;;;;;;;11.05;7.45;;;;;;;13.64;64.38;92917.66;5010322;28;20038;-93
2021/06/02 05:43:38;;;;;;;10.00;7.15;;;;;;;13.67;64.89;92917.88;5010814;28;20070;-94
2021/06/02 05:46:17;;;;;;;9.43;6.28;;;;;;;13.63;64.54;92911.63;5017593;28;20117;-93
2021/06/02 05:49:19;;;;;;;10.50;6.88;;;;;;;13.57;66.59;92898.88;5025272;28;20038;-92
2021/06/02 05:52:34;;;;;;;10.93;6.57;;;;;;;13.72;65.58;92917.75;4993224;28;20674;-91
2021/06/02 05:55:35;;;;;;;10.40;7.13;;;;;;;13.78;65.55;92918.44;4998755;28;20040;-92
2021/06/02 05:58:35;;;;;;;11.65;5.70;;;;;;;13.78;65.10;92918.44;5009549;28;20026;-93
2021/06/02 06:01:30;;;;;;;11.77;6.28;;;;;;;13.79;64.14;92920.00;5009924;28;20046;-91
2021/06/02 06:04:29;;;;;;;14.20;6.00;;;;;;;13.53;65.61;92922.34;5006100;28;20689;-93
2021/06/02 06:07:37;;;;;;;10.48;7.00;;;;;;;13.48;65.87;92920.59;4993549;28;20508;-92
2021/06/02 06:10:38;;;;;;;13.50;9.70;;;;;;;13.45;65.91;92928.31;4994053;28;20050;-90
2021/06/02 06:13:33;;;;;;;17.45;8.95;;;;;;;13.50;65.96;92926.34;4987492;28;20046;-91
2021/06/02 06:16:12;;;;;;;13.68;8.95;;;;;;;13.53;66.51;92933.66;5011397;28;20519;-92
2021/06/02 06:18:57;;;;;;;14.57;8.88;;;;;;;13.52;66.63;92932.09;5011395;28;20045;-91
2021/06/02 06:21:44;;;;;;;14.52;8.10;;;;;;;13.57;66.81;92938.34;5008470;28;20043;-92
2021/06/02 06:24:26;;;;;;;13.45;8.98;;;;;;;13.55;66.87;92933.34;4990315;28;20079;-91
2021/06/02 06:27:39;;;;;;;13.20;8.73;;;;;;;13.58;65.77;92929.34;5009597;28;20051;-91
2021/06/02 06:31:04;;;;;;;;;;;;;;;;;;;;;
2021/06/02 06:33:35;;;;;;;11.50;8.13;;;;;;;13.66;65.85;92929.44;4976365;28;20039;-92
2021/06/02 06:36:40;;;;;;;11.38;8.23;;;;;;;13.75;65.25;92934.81;5003838;28;20042;-91
2021/06/02 06:39:23;;;;;;;14.95;8.85;;;;;;;13.76;65.78;92925.84;5009381;28;20046;-92
2021/06/02 06:42:05;;;;;;;14.32;8.80;;;;;;;13.69;65.70;92922.81;5026315;28;20034;-91
2021/06/02 06:44:58;;;;;;;12.80;9.38;;;;;;;13.85;65.35;92937.25;4993800;28;20054;-91
2021/06/02 06:47:47;;;;;;;;;;;;;;;14.00;65.99;92946.66;5004112;28;20042;-91
2021/06/02 06:50:14;;;;;;;16.45;9.00;;;;;;;14.01;66.17;92942.19;4992850;28;19921;-93
2021/06/02 06:53:09;;;;;;;;;;;;;;;;;;;;;
2021/06/02 06:56:08;;;;;;;12.70;8.93;;;;;;;14.05;66.77;92946.56;4998175;28;20057;-92
2021/06/02 06:58:48;;;;;;;12.18;8.73;;;;;;;14.14;67.44;92947.41;4974065;28;20046;-91
2021/06/02 07:01:20;;;;;;;13.82;9.90;;;;;;;14.10;66.23;92946.44;5008526;28;20408;-90
2021/06/02 07:04:01;;;;;;;17.92;10.77;;;;;;;14.15;66.33;92950.81;4991834;28;20094;-93
2021/06/02 07:06:37;;;;;;;15.55;10.77;;;;;;;14.25;65.77;92962.97;4999020;28;20044;-91
2021/06/02 07:09:24;;;;;;;;;;;;;;;;;;;;;
2021/06/02 07:12:12;;;;;;;18.60;10.60;;;;;;;14.45;65.55;92961.75;4974204;28;20039;-91
2021/06/02 07:14:39;;;;;;;17.45;9.73;;;;;;;14.51;66.53;92966.63;4982682;28;20030;-91
2021/06/02 07:18:01;;;;;;;17.75;11.75;;;;;;;14.44;67.41;92957.56;4993970;28;20038;-90
2021/06/02 07:20:31;;;;;;;18.27;11.50;;;;;;;14.53;66.86;92958.41;4987044;28;20061;-91
2021/06/02 07:23:07;;;;;;;16.77;10.88;;;;;;;14.35;67.83;92960.13;5008232;28;20068;-91
2021/06/02 07:25:42;;;;;;;18.00;11.93;;;;;;;14.51;68.30;92955.31;5005224;28;20101;-91
2021/06/02 07:28:37;;;;;;;18.05;12.40;;;;;;;14.50;69.30;92966.91;4977533;28;20046;-91
2021/06/02 07:31:29;;;;;;;18.77;12.25;;;;;;;14.47;70.43;92975.41;4992833;28;20042;-92
2021/06/02 07:34:16;;;;;;;18.75;11.55;;;;;;;14.27;68.93;92963.47;5031859;28;20043;-91
2021/06/02 07:37:08;;;;;;;20.33;12.38;;;;;;;14.34;68.78;92972.53;5007121;28;20046;-91
2021/06/02 07:39:45;;;;;;;19.27;11.85;;;;;;;14.35;68.96;92971.44;4998199;28;20034;-91
2021/06/02 07:42:28;;;;;;;16.65;11.85;;;;;;;14.49;68.66;92978.53;5026097;28;20038;-92
2021/06/02 07:45:35;;;;;;;;;;;;;;;;;;;;;
2021/06/02 07:48:16;;;;;;;20.30;11.55;;;;;;;14.59;66.70;92978.34;5024508;28;20050;-91
2021/06/02 07:51:04;;;;;;;16.98;11.68;;;;;;;14.69;66.64;92974.69;4992539;28;20038;-91
2021/06/02 07:53:34;;;;;;;16.17;10.55;;;;;;;14.77;65.06;92985.28;4992305;28;20030;-92
2021/06/02 07:56:34;;;;;;;20.67;11.55;;;;;;;14.88;65.01;93000.84;4988988;28;20376;-92
2021/06/02 07:59:12;;;;;;;14.88;10.68;;;;;;;14.57;66.17;92988.41;4978665;28;20066;-94
2021/06/02 08:01:43;;;;;;;17.55;11.13;;;;;;;14.69;67.47;92987.84;4989971;28;20629;-92
2021/06/02 08:04:33;;;;;;;17.23;11.75;;;;;;;14.53;67.35;92996.06;4988583;28;20496;-93
2021/06/02 08:07:04;;;;;;;16.48;10.50;;;;;;;14.68;67.71;93002.91;5023718;28;20053;-93
2021/06/02 08:10:18;;;;;;;17.20;12.10;;;;;;;14.67;66.67;92998.69;5005293;28;20088;-93
2021/06/02 08:13:05;;;;;;;14.30;9.38;;;;;;;14.81;67.24;93006.53;4992714;28;20149;-94
2021/06/02 08:15:39;;;;;;;11.07;8.23;;;;;;;14.86;64.54;93013.53;4993050;28;20034;-94
2021/06/02 08:18:15;;;;;;;11.05;7.57;;;;;;;14.73;63.69;93000.13;4992923;28;20046;-94
2021/06/02 08:20:56;;;;;;;14.00;8.55;;;;;;;14.70;65.42;93006.00;4992734;28;20455;-93
2021/06/02 08:23:30;;;;;;;11.95;7.57;;;;;;;14.80;65.39;92999.72;4992075;28;20042;-93
2021/06/02 08:26:27;;;;;;;18.17;9.30;;;;;;;14.85;64.14;93001.47;5007714;28;20041;-93
2021/06/02 08:29:08;;;;;;;17.80;8.80;;;;;;;14.95;65.05;93006.47;5007453;28;20046;-94
2021/06/02 08:31:49;;;;;;;;;;;;;;;;;;;;;
2021/06/02 08:34:27;;;;;;;16.10;8.38;;;;;;;15.07;64.00;93004.09;5027916;28;20046;-94
2021/06/02 08:37:10;;;;;;;10.73;7.47;;;;;;;15.17;63.21;93017.00;4993842;28;20047;-93
2021/06/02 08:39:59;;;;;;;;;;;;;;;;;;;;;
2021/06/02 08:42:53;;;;;;;17.23;8.02;;;;;;;15.18;62.98;93017.81;5004854;28;20496;-93
2021/06/02 08:45:36;;;;;;;11.82;8.23;;;;;;;15.17;62.75;93013.59;4992587;28;20101;-94
2021/06/02 08:48:08;;;;;;;12.50;8.18;;;;;;;15.18;62.71;93012.53;4990944;28;20093;-92
2021/06/02 08:50:56;;;;;;;15.52;8.10;;;;;;;15.24;63.02;93010.53;4988469;28;20068;-94
2021/06/02 08:53:39;;;;;;;16.20;10.63;;;;;;;15.12;66.00;93017.13;5010685;28;20034;-93
2021/06/02 08:56:29;;;;;;;16.58;10.10;;;;;;;15.03;65.52;93007.63;5028891;28;20480;-94
2021/06/02 08:59:18;;;;;;;16.58;10.05;;;;;;;14.94;66.22;93026.78;4994874;28;20125;-92
2021/06/02 09:02:03;;;;;;;;;;;;;;;;;;;;;
2021/06/02 09:04:52;;;;;;;19.15;10.55;;;;;;;15.12;69.52;93027.69;4976283;28;20050;-92
2021/06/02 09:07:40;;;;;;;16.73;10.57;;;;;;;15.05;67.08;93027.34;5010995;28;20035;-93
2021/06/02 09:10:39;;;;;;;;;;;;;;;;;;;;;
2021/06/02 09:13:37;;;;;;;20.40;10.63;;;;;;;15.30;66.74;93025.16;4973162;28;20057;-91
2021/06/02 09:19:33;;;;;;;20.75;11.43;;;;;;;15.38;66.85;93019.16;4988494;28;20109;-92
2021/06/02 09:22:44;;;;;;;16.13;10.70;;;;;;;15.53;66.00;93024.03;5016860;28;20624;-91
2021/06/02 09:25:43;;;;;;;15.25;9.88;;;;;;;15.73;64.31;93035.19;4978410;28;20041;-93
2021/06/02 09:28:13;;;;;;;17.42;11.30;;;;;;;15.73;65.20;93028.03;4994485;28;20042;-93
2021/06/02 09:30:43;;;;;;;20.35;11.18;;;;;;;15.79;64.75;93034.75;4992545;28;20459;-96
2021/06/02 09:33:31;;;;;;;17.42;10.68;;;;;;;16.07;65.24;93034.53;4975563;28;20053;-92
2021/06/02 09:36:21;;;;;;;;;;;;;;;;;;;;;
2021/06/02 09:39:21;;;;;;;20.10;10.55;;;;;;;16.71;62.29;93028.75;5013159;28;20046;-93
2021/06/02 09:42:18;;;;;;;15.73;10.05;;;;;;;17.32;61.91;93041.19;4990665;28;20068;-93
2021/06/02 09:45:44;;;;;;;15.48;9.40;;;;;;;16.51;61.71;93045.97;4974997;28;20078;-92
2021/06/02 09:48:30;;;;;;;;;;;;;;;;;;;;;
2021/06/02 09:51:40;;;;;;;18.85;10.02;;;;;;;17.35;59.70;93041.31;5022031;28;20070;-93
2021/06/02 09:54:43;;;;;;;13.43;9.73;;;;;;;16.65;59.98;93045.84;4982277;28;20034;-93
2021/06/02 09:57:34;;;;;;;;;;;;;;;;;;;;;
2021/06/02 10:00:21;;;;;;;16.52;9.70;;;;;;;16.93;60.54;93062.22;4995441;28;20129;-93
2021/06/02 10:03:22;;;;;;;15.50;9.20;;;;;;;17.10;60.87;93053.50;5009393;28;20489;-94
2021/06/02 10:06:29;;;;;;;14.43;10.10;;;;;;;16.97;58.38;93052.56;4994487;28;20033;-94
2021/06/02 10:09:07;;;;;;;;;;;;;;;;;;;;;
2021/06/02 10:12:12;;;;;;;20.00;10.88;;;;;;;16.87;59.13;93065.31;4989864;28;20042;-93
2021/06/02 10:15:02;;;;;;;16.92;9.90;;;;;;;17.10;59.33;93058.00;4974903;28;20047;-93
2021/06/02 10:20:40;;;;;;;12.50;9.75;;;;;;;16.88;59.97;93072.16;5007384;28;20039;-94
2021/06/02 10:23:30;;;;;;;14.73;9.68;;;;;;;16.93;59.91;93066.72;5006407;28;20113;-92
2021/06/02 10:26:18;;;;;;;14.02;10.20;;;;;;;17.54;57.77;93083.31;4974174;28;20039;-93
2021/06/02 10:29:20;;;;;;;13.82;9.32;;;;;;;16.90;59.79;93073.41;5017570;28;20069;-93
2021/06/02 10:31:58;;;;;;;;;;;;;;;;;;;;;
2021/06/02 10:34:37;;;;;;;16.13;10.43;;;;;;;16.51;59.92;93069.00;4992562;28;20050;-93
2021/06/02 10:37:14;;;;;;;;;;;;;;;;;;;;;
2021/06/02 10:40:10;;;;;;;13.98;9.75;;;;;;;17.18;58.41;93087.09;4993151;28;20038;-92
2021/06/02 10:42:57;;;;;;;14.32;9.50;;;;;;;17.40;58.50;93090.66;4993819;28;20431;-93
2021/06/02 10:46:07;;;;;;;16.35;9.55;;;;;;;16.93;57.86;93074.63;4995272;28;20045;-93
2021/06/02 10:48:49;;;;;;;;;;;;;;;;;;;;;
2021/06/02 10:51:43;;;;;;;16.35;9.07;;;;;;;17.94;56.75;93096.31;4979784;28;20060;-92
2021/06/02 10:54:41;;;;;;;13.50;9.15;;;;;;;17.63;55.64;93092.03;4992984;28;20034;-93
2021/06/02 10:57:22;;;;;;;15.40;9.27;;;;;;;17.76;54.56;93087.63;5021731;28;20054;-91
2021/06/02 11:00:35;;;;;;;12.07;8.32;;;;;;;17.19;55.67;93080.72;5007609;28;20043;-94
2021/06/02 11:03:42;;;;;;;13.40;9.32;;;;;;;17.79;53.42;93080.94;4991968;28;20061;-93
2021/06/02 11:06:25;;;;;;;16.10;8.23;;;;;;;18.16;53.52;93097.97;5023612;28;20056;-94
2021/06/02 11:09:11;;;;;;;;;;;;;;;;;;;;;
2021/06/02 11:12:14;;;;;;;13.43;8.45;;;;;;;18.74;51.47;93085.03;5005329;28;20034;-92
2021/06/02 11:15:15;;;;;;;12.50;7.85;;;;;;;18.44;52.06;93095.66;5006205;28;20047;-93
2021/06/02 11:18:08;;;;;;;12.80;6.78;;;;;;;18.54;53.58;93075.97;4976207;28;20483;-94
2021/06/02 11:20:51;;;;;;;12.90;7.82;;;;;;;18.59;52.31;93086.38;4994041;28;20052;-93
2021/06/02 11:23:41;;;;;;;;;;;;;;;;;;;;;
2021/06/02 11:26:37;;;;;;;12.88;7.68;;;;;;;19.12;50.51;93073.56;5011860;28;20473;-93
2021/06/02 11:29:38;;;;;;;11.90;7.88;;;;;;;19.39;51.43;93079.44;4991453;28;20404;-93
2021/06/02 11:32:50;;;;;;;10.15;7.70;;;;;;;19.22;50.94;93089.09;4992186;28;20166;-94
2021/06/02 11:35:58;;;;;;;10.93;7.50;;;;;;;18.41;52.27;93098.16;4981200;28;20129;-93
2021/06/02 11:38:30;;;;;;;12.95;7.32;;;;;;;18.14;52.63;93068.34;4981082;28;20038;-92
2021/06/02 11:41:34;;;;;;;10.68;6.63;;;;;;;18.10;53.91;93089.44;4983741;28;20034;-93
2021/06/02 11:47:21;;;;;;;11.20;7.80;;;;;;;17.98;51.45;93086.66;5006790;28;20070;-93
2021/06/02 11:50:18;;;;;;;11.43;7.57;;;;;;;18.18;52.17;93081.75;5005914;28;20652;-93
2021/06/02 11:53:10;;;;;;;11.70;7.93;;;;;;;17.93;53.39;93089.47;5009596;28;20098;-94
2021/06/02 11:55:55;;;;;;;11.48;8.75;;;;;;;17.86;51.33;93091.84;5008490;28;20045;-93
2021/06/02 11:58:31;;;;;;;10.60;7.90;;;;;;;18.49;50.84;93076.91;5024839;28;20027;-93
2021/06/02 12:01:29;;;;;;;13.63;9.05;;;;;;;18.67;50.75;93082.13;4990692;28;20031;-92
2021/06/02 12:04:44;;;;;;;;;;;;;;;;;;;;;
2021/06/02 12:07:42;;;;;;;;;;;;;;;;;;;;;
2021/06/02 12:10:30;;;;;;;;;;;;;;;;;;;;;
2021/06/02 12:13:31;;;;;;;12.55;8.75;;;;;;;18.96;48.81;93099.09;4992813;28;20039;-93
2021/06/02 12:16:31;;;;;;;11.98;8.35;;;;;;;18.67;48.06;93090.09;4993780;28;20481;-92
2021/06/02 12:19:06;;;;;;;15.82;8.05;;;;;;;18.68;49.72;93102.22;5028691;28;20038;-93
2021/06/02 12:21:53;;;;;;;;;;;;;;;;;;;;;
2021/06/02 12:24:49;;;;;;;;;;;;;;;;;;;;;
2021/06/02 12:27:22;;;;;;;12.30;8.63;;;;;;;18.13;50.15;93071.34;4987485;28;20126;-94
2021/06/02 12:30:30;;;;;;;12.63;7.78;;;;;;;19.20;47.72;93080.66;5013330;28;20100;-92
2021/06/02 12:33:12;;;;;;;12.07;7.93;;;;;;;19.15;47.76;93083.53;5002457;28;20034;-92
2021/06/02 12:36:16;;;;;;;12.70;7.32;;;;;;;18.54;49.69;93075.97;4993463;28;20042;-93
2021/06/02 12:39:16;;;;;;;12.88;8.35;;;;;;;18.96;48.81;93085.84;4994702;28;20053;-93
2021/06/02 12:42:12;;;;;;;;;;;;;;;19.00;47.69;93084.88;5010120;28;20480;-93
2021/06/02 12:45:01;;;;;;;12.55;7.50;;;;;;;18.92;48.37;93075.91;4976221;28;19917;-94
2021/06/02 12:47:43;;;;;;;12.90;7.85;;;;;;;19.11;47.71;93072.00;5007789;28;20478;-93
2021/06/02 12:50:49;;;;;;;13.13;8.38;;;;;;;18.93;47.21;93072.13;4995929;28;20046;-92
2021/06/02 12:54:07;;;;;;;;;;;;;;;;;;;;;
2021/06/02 12:57:10;;;;;;;12.05;7.80;;;;;;;19.35;45.54;93071.34;5006483;28;20034;-92
2021/06/02 12:59:49;;;;;;;10.88;8.15;;;;;;;19.39;45.41;93071.47;4996590;28;20042;-93
2021/06/02 13:02:28;;;;;;;;;;;;;;;;;;;;;
2021/06/02 13:05:34;;;;;;;9.63;6.57;;;;;;;19.13;45.47;93080.41;5027113;28;20030;-93
2021/06/02 13:08:13;;;;;;;9.77;6.60;;;;;;;18.74;46.05;93074.44;5011613;28;20129;-93
2021/06/02 13:11:13;;;;;;;12.82;8.05;;;;;;;18.69;46.50;93072.75;5028259;28;20050;-93
2021/06/02 13:13:48;;;;;;;14.10;7.88;;;;;;;18.85;46.49;93070.34;5027574;28;20035;-93
2021/06/02 13:16:20;;;;;;;13.35;9.13;;;;;;;18.95;46.48;93068.38;5010065;28;20054;-93
2021/06/02 13:18:59;;;;;;;10.18;6.95;;;;;;;19.41;48.08;93090.47;4989008;28;20043;-93
2021/06/02 13:21:56;;;;;;;10.40;6.97;;;;;;;19.71;46.27;93078.66;4993404;28;20089;-94
2021/06/02 13:24:55;;;;;;;8.80;6.78;;;;;;;19.50;45.35;93067.31;4975214;28;20035;-93
2021/06/02 13:27:29;;;;;;;12.57;8.43;;;;;;;19.74;46.73;93082.53;4976114;28;20031;-93
2021/06/02 13:30:04;;;;;;;9.57;6.13;;;;;;;19.92;48.20;93096.44;5008613;28;20092;-94
2021/06/02 13:32:54;;;;;;;8.95;6.03;;;;;;;19.72;48.80;93079.44;5010381;28;20134;-93
2021/06/02 13:35:37;;;;;;;10.55;6.60;;;;;;;20.01;47.75;93077.72;4995158;28;20046;-93
2021/06/02 13:38:34;;;;;;;9.45;6.10;;;;;;;20.57;47.09;93076.13;5025062;28;20053;-92
2021/06/02 13:41:23;;;;;;;8.60;6.60;;;;;;;19.67;47.67;93077.75;4994485;28;20046;-94
2021/06/02 13:44:32;;;;;;;10.60;6.45;;;;;;;20.32;46.30;93093.16;4994941;28;20124;-94
2021/06/02 13:47:51;;;;;;;11.38;6.55;;;;;;;20.11;44.91;93074.66;4980112;28;20059;-94
2021/06/02 13:50:45;;;;;;;9.32;5.93;;;;;;;19.91;46.49;93086.91;4990616;28;20112;-93
2021/06/02 13:53:38;;;;;;;13.70;6.43;;;;;;;19.13;48.39;93080.41;5024381;28;20937;-93
2021/06/02 13:56:31;;;;;;;9.20;6.20;;;;;;;19.24;49.17;93076.25;4994420;28;20035;-94
2021/06/02 13:59:36;;;;;;;9.48;6.22;;;;;;;19.78;47.74;93072.06;4988256;28;20064;-94
2021/06/02 14:02:48;;;;;;;;;;;;;;;;;;;;;
2021/06/02 14:05:20;;;;;;;8.18;5.82;;;;;;;20.09;47.25;93077.63;4991203;28;20069;-93
2021/06/02 14:07:59;;;;;;;12.02;6.03;;;;;;;19.87;48.20;93064.75;4974889;28;20042;-95
2021/06/02 14:10:45;;;;;;;;;;;;;;;;;;;;;
2021/06/02 14:13:58;;;;;;;9.50;6.38;;;;;;;19.48;47.72;93053.59;4993089;28;20289;-94
2021/06/02 14:16:41;;;;;;;10.27;6.20;;;;;;;19.29;48.04;93052.16;4986716;28;20043;-93
2021/06/02 14:19:26;;;;;;;8.07;6.03;;;;;;;19.09;49.48;93061.72;4991427;28;20485;-94
2021/06/02 14:22:14;;;;;;;;;;;;;;;;;;;;;
2021/06/02 14:25:12;;;;;;;;;;;;;;;;;;;;;
2021/06/02 14:28:06;;;;;;;;;;;;;;;;;;;;;
2021/06/02 14:30:55;;;;;;;;;;;;;;;;;;;;;
2021/06/02 14:33:44;;;;;;;7.38;5.63;;;;;;;19.08;51.32;93070.00;4993876;28;20391;-94
2021/06/02 14:36:36;;;;;;;;;;;;;;;;;;;;;
2021/06/02 14:39:18;;;;;;;;;;;;;;;;;;;;;
2021/06/02 14:41:57;;;;;;;13.70;5.93;;;;;;;19.21;50.07;93055.69;4994547;28;20465;-93
2021/06/02 14:44:46;;;;;;;;;;;;;;;;;;;;;
2021/06/02 14:47:24;;;;;;;7.85;5.55;;;;;;;19.33;50.83;93054.97;4993120;28;20080;-93
2021/06/02 14:50:18;;;;;;;9.63;5.85;;;;;;;19.30;51.33;93074.97;4993238;28;20070;-93
2021/06/02 14:53:24;;;;;;;9.63;6.22;;;;;;;19.38;50.48;93065.38;5008877;28;20050;-94
2021/06/02 14:55:59;;;;;;;10.48;5.97;;;;;;;19.18;52.45;93060.88;4975320;28;20437;-95
2021/06/02 14:58:57;;;;;;;10.50;5.82;;;;;;;19.10;51.98;93065.16;4991471;28;20042;-94
2021/06/02 15:01:59;;;;;;;7.78;5.97;;;;;;;18.82;52.55;93064.88;4992634;28;20045;-94
2021/06/02 15:04:38;;;;;;;11.75;6.00;;;;;;;19.04;52.49;93072.53;4989592;28;20051;-94
2021/06/02 15:07:17;;;;;;;11.60;6.35;;;;;;;18.66;51.76;93056.69;4998026;28;20461;-94